Time;durP1;ratioP1;P1;durP2;ratioP2;P2;SDS_P1;SDS_P2;PMS_P1;PMS_P2;Temp;Humidity;BMP_temperature;BMP_pressure;BME280_temperature;BME280_humidity;BME280_pressure;Samples;Min_cycle;Max_cycle;Signal;HPM_P1;HPM_P2
2023/06/04 00:02:17;;;;;;;5.88;5.30;;;;;;;;;;5027556;28;19923;-70
2023/06/04 00:04:43;;;;;;;5.97;5.38;;;;;;;;;;5022170;28;20037;-71
2023/06/04 00:07:08;;;;;;;5.30;4.80;;;;;;;;;;5027373;28;20099;-72
2023/06/04 00:09:34;;;;;;;7.32;5.07;;;;;;;;;;5027145;28;20121;-69
2023/06/04 00:11:59;;;;;;;5.60;5.00;;;;;;;;;;5008483;28;20030;-71
2023/06/04 00:14:25;;;;;;;6.85;4.85;;;;;;;;;;5024952;28;20075;-70
2023/06/04 00:16:51;;;;;;;5.65;4.70;;;;;;;;;;5024631;28;20041;-70
2023/06/04 00:19:16;;;;;;;6.55;4.90;;;;;;;;;;5027130;28;20037;-71
2023/06/04 00:21:42;;;;;;;7.03;5.07;;;;;;;;;;5022583;28;20033;-70
2023/06/04 00:24:07;;;;;;;5.20;4.80;;;;;;;;;;5026598;28;20632;-70
2023/06/04 00:26:33;;;;;;;5.60;5.10;;;;;;;;;;5026702;28;20083;-70
2023/06/04 00:29:00;;;;;;;5.25;4.75;;;;;;;;;;5026643;28;20042;-70
2023/06/04 00:31:26;;;;;;;8.32;5.13;;;;;;;;;;5024102;28;20509;-70
2023/06/04 00:33:52;;;;;;;5.65;4.60;;;;;;;;;;5024004;28;20064;-69
2023/06/04 00:36:18;;;;;;;9.38;5.32;;;;;;;;;;5023311;28;20033;-72
2023/06/04 00:38:43;;;;;;;7.68;5.50;;;;;;;;;;5024333;28;20525;-69
2023/06/04 00:41:09;;;;;;;6.57;5.50;;;;;;;;;;5024682;28;20041;-68
2023/06/04 00:43:35;;;;;;;7.88;5.30;;;;;;;;;;5025513;28;20052;-73
2023/06/04 00:46:04;;;;;;;6.13;5.05;;;;;;;;;;5027131;28;20540;-68
2023/06/04 00:48:30;;;;;;;8.65;5.55;;;;;;;;;;5023250;28;20540;-71
2023/06/04 00:50:56;;;;;;;5.20;4.70;;;;;;;;;;5025995;28;20045;-68
2023/06/04 00:53:25;;;;;;;5.63;4.95;;;;;;;;;;5025686;28;20098;-69
2023/06/04 00:55:51;;;;;;;5.60;5.07;;;;;;;;;;5026992;28;20140;-71
2023/06/04 00:58:17;;;;;;;6.25;4.85;;;;;;;;;;5024755;28;20037;-71
2023/06/04 01:00:44;;;;;;;5.20;4.30;;;;;;;;;;5025472;28;20036;-70
2023/06/04 01:03:19;;;;;;;5.00;4.50;;;;;;;;;;5022156;28;20052;-70
2023/06/04 01:05:54;;;;;;;4.80;4.40;;;;;;;;;;5025043;28;20128;-72
2023/06/04 01:08:20;;;;;;;5.60;5.00;;;;;;;;;;5026743;28;20585;-70
2023/06/04 01:10:52;;;;;;;5.40;4.35;;;;;;;;;;5026731;28;20055;-69
2023/06/04 01:13:18;;;;;;;6.35;4.85;;;;;;;;;;5026659;28;20544;-70
2023/06/04 01:15:44;;;;;;;5.63;4.80;;;;;;;;;;5023885;28;20041;-71
2023/06/04 01:18:11;;;;;;;5.70;4.72;;;;;;;;;;5026137;28;20037;-69
2023/06/04 01:20:41;;;;;;;5.03;4.53;;;;;;;;;;5026449;28;20114;-69
2023/06/04 01:23:58;;;;;;;9.73;5.55;;;;;;;;;;5023429;28;20037;-72
2023/06/04 01:26:28;;;;;;;7.93;5.25;;;;;;;;;;5025613;28;20043;-71
2023/06/04 01:28:56;;;;;;;5.30;4.53;;;;;;;;;;5026004;28;20111;-71
2023/06/04 01:31:22;;;;;;;4.97;4.55;;;;;;;;;;5026232;28;20088;-70
2023/06/04 01:33:57;;;;;;;4.57;4.18;;;;;;;;;;5023214;28;20033;-68
2023/06/04 01:36:23;;;;;;;5.75;4.85;;;;;;;;;;5024667;28;20037;-69
2023/06/04 01:38:50;;;;;;;5.53;4.90;;;;;;;;;;5025923;28;20048;-68
2023/06/04 01:41:16;;;;;;;9.55;4.65;;;;;;;;;;5023926;28;20041;-71
2023/06/04 01:43:42;;;;;;;6.35;4.15;;;;;;;;;;5023748;28;20401;-69
2023/06/04 01:46:07;;;;;;;4.78;4.40;;;;;;;;;;5029369;28;20061;-69
2023/06/04 01:48:33;;;;;;;4.60;4.03;;;;;;;;;;5025375;28;20578;-71
2023/06/04 01:50:58;;;;;;;4.90;4.50;;;;;;;;;;5024989;28;20041;-69
2023/06/04 01:53:24;;;;;;;5.35;4.85;;;;;;;;;;5024368;28;20046;-70
2023/06/04 01:55:51;;;;;;;5.13;4.63;;;;;;;;;;5025831;28;20038;-71
2023/06/04 01:58:26;;;;;;;5.30;4.53;;;;;;;;;;5023711;28;20044;-70
2023/06/04 02:00:59;;;;;;;6.60;4.70;;;;;;;;;;5025366;28;20127;-68
2023/06/04 02:03:26;;;;;;;5.35;4.88;;;;;;;;;;5026360;28;20120;-69
2023/06/04 02:05:52;;;;;;;5.80;4.82;;;;;;;;;;5032000;28;20554;-70
2023/06/04 02:08:18;;;;;;;6.03;4.55;;;;;;;;;;5023336;28;20025;-68
2023/06/04 02:10:48;;;;;;;6.25;4.50;;;;;;;;;;5024697;28;20140;-70
2023/06/04 02:13:14;;;;;;;4.70;4.30;;;;;;;;;;5024748;28;20030;-68
2023/06/04 02:15:40;;;;;;;4.82;4.38;;;;;;;;;;5025809;28;20041;-69
2023/06/04 02:18:17;;;;;;;5.05;4.25;;;;;;;;;;5022351;28;20087;-69
2023/06/04 02:20:45;;;;;;;4.40;4.10;;;;;;;;;;5025961;28;20033;-68
2023/06/04 02:23:11;;;;;;;4.35;4.05;;;;;;;;;;5021098;28;20088;-70
2023/06/04 02:25:37;;;;;;;4.55;4.15;;;;;;;;;;5024250;28;20106;-70
2023/06/04 02:28:02;;;;;;;4.80;4.30;;;;;;;;;;5022797;28;20484;-68
2023/06/04 02:30:28;;;;;;;6.30;4.75;;;;;;;;;;5023748;28;20043;-68
2023/06/04 02:32:54;;;;;;;4.50;4.10;;;;;;;;;;5025273;28;20037;-71
2023/06/04 02:35:22;;;;;;;4.95;4.55;;;;;;;;;;5025079;28;20838;-69
2023/06/04 02:37:49;;;;;;;4.97;4.35;;;;;;;;;;5019871;28;20051;-69
2023/06/04 02:40:15;;;;;;;5.00;4.30;;;;;;;;;;5023685;28;20228;-69
2023/06/04 02:42:40;;;;;;;8.60;4.90;;;;;;;;;;5028303;28;20037;-69
2023/06/04 02:45:07;;;;;;;5.13;4.72;;;;;;;;;;5014538;28;21625;-71
2023/06/04 02:47:32;;;;;;;6.45;4.63;;;;;;;;;;5028960;28;20041;-70
2023/06/04 02:49:58;;;;;;;7.60;5.22;;;;;;;;;;5024495;28;20037;-70
2023/06/04 02:52:25;;;;;;;6.03;4.90;;;;;;;;;;5024608;28;20045;-72
2023/06/04 02:54:51;;;;;;;7.75;4.90;;;;;;;;;;5028145;28;20536;-71
2023/06/04 02:57:16;;;;;;;6.80;4.50;;;;;;;;;;5019157;28;20048;-71
2023/06/04 02:59:42;;;;;;;4.82;4.40;;;;;;;;;;5023538;28;20033;-69
2023/06/04 03:02:08;;;;;;;5.25;4.72;;;;;;;;;;5018730;28;20893;-70
2023/06/04 03:04:34;;;;;;;4.43;4.07;;;;;;;;;;5022041;28;20069;-69
2023/06/04 03:07:04;;;;;;;5.35;4.50;;;;;;;;;;5020036;28;20086;-69
2023/06/04 03:09:33;;;;;;;5.30;4.55;;;;;;;;;;5017891;28;20477;-69
2023/06/04 03:12:02;;;;;;;5.75;4.97;;;;;;;;;;5019922;28;20099;-69
2023/06/04 03:14:32;;;;;;;4.30;4.00;;;;;;;;;;5016670;28;20689;-69
2023/06/04 03:17:07;;;;;;;6.45;4.78;;;;;;;;;;5021214;28;20140;-69
2023/06/04 03:19:41;;;;;;;4.35;4.05;;;;;;;;;;5019295;28;20646;-68
2023/06/04 03:22:08;;;;;;;4.30;4.00;;;;;;;;;;5036362;28;20657;-71
2023/06/04 03:24:36;;;;;;;4.25;3.90;;;;;;;;;;5019092;28;20053;-69
2023/06/04 03:27:03;;;;;;;4.30;4.00;;;;;;;;;;5021528;28;20525;-70
2023/06/04 03:29:30;;;;;;;4.97;4.57;;;;;;;;;;5019539;28;20037;-70
2023/06/04 03:31:58;;;;;;;4.82;4.18;;;;;;;;;;5019790;28;20042;-70
2023/06/04 03:34:25;;;;;;;4.57;4.22;;;;;;;;;;5033180;28;20525;-70
2023/06/04 03:36:52;;;;;;;4.50;4.07;;;;;;;;;;5019669;28;20083;-70
2023/06/04 03:39:18;;;;;;;4.43;4.13;;;;;;;;;;5021103;28;20040;-68
2023/06/04 03:41:44;;;;;;;4.43;4.03;;;;;;;;;;5025994;28;20512;-69
2023/06/04 03:44:12;;;;;;;5.07;4.68;;;;;;;;;;5019156;28;20041;-70
2023/06/04 03:46:38;;;;;;;4.30;4.00;;;;;;;;;;5020264;28;20037;-71
2023/06/04 03:49:04;;;;;;;7.60;5.40;;;;;;;;;;5020896;28;20180;-70
2023/06/04 03:51:30;;;;;;;4.38;4.05;;;;;;;;;;5027774;28;20103;-70
2023/06/04 03:53:58;;;;;;;4.13;3.83;;;;;;;;;;5019052;28;20099;-70
2023/06/04 03:56:26;;;;;;;4.57;3.78;;;;;;;;;;5021382;28;20064;-69
2023/06/04 03:58:52;;;;;;;3.80;3.60;;;;;;;;;;5019753;28;20037;-69
2023/06/04 04:01:18;;;;;;;4.80;4.22;;;;;;;;;;5028757;28;20039;-69
2023/06/04 04:03:48;;;;;;;4.63;4.22;;;;;;;;;;5022438;28;20037;-68
2023/06/04 04:06:13;;;;;;;4.35;4.05;;;;;;;;;;5024456;28;20054;-69
2023/06/04 04:08:42;;;;;;;4.53;4.13;;;;;;;;;;5027880;28;20160;-69
2023/06/04 04:11:08;;;;;;;4.85;4.45;;;;;;;;;;5025138;28;20033;-69
2023/06/04 04:13:34;;;;;;;4.65;4.20;;;;;;;;;;5026383;28;20041;-69
2023/06/04 04:16:00;;;;;;;5.07;4.68;;;;;;;;;;5025957;28;20037;-68
2023/06/04 04:18:26;;;;;;;4.68;4.25;;;;;;;;;;5025886;28;20070;-70
2023/06/04 04:20:52;;;;;;;4.90;4.25;;;;;;;;;;5033420;28;20092;-69
2023/06/04 04:23:17;;;;;;;4.72;4.00;;;;;;;;;;5029589;28;20021;-70
2023/06/04 04:25:44;;;;;;;5.50;4.63;;;;;;;;;;5036819;28;20045;-69
2023/06/04 04:28:10;;;;;;;4.95;4.55;;;;;;;;;;5029434;28;20048;-68
2023/06/04 04:30:38;;;;;;;4.78;4.38;;;;;;;;;;5024927;28;20037;-69
2023/06/04 04:33:07;;;;;;;4.50;4.10;;;;;;;;;;5026083;28;20045;-69
2023/06/04 04:35:37;;;;;;;4.60;4.20;;;;;;;;;;5027001;28;20699;-69
2023/06/04 04:38:04;;;;;;;6.22;4.47;;;;;;;;;;5025800;28;20042;-69
2023/06/04 04:40:35;;;;;;;5.93;4.13;;;;;;;;;;5025954;28;20079;-69
2023/06/04 04:43:03;;;;;;;4.68;4.20;;;;;;;;;;5033617;28;20035;-69
2023/06/04 04:45:29;;;;;;;4.20;3.90;;;;;;;;;;5021902;28;20033;-70
2023/06/04 04:47:58;;;;;;;4.80;4.40;;;;;;;;;;5015942;28;20033;-70
2023/06/04 04:50:24;;;;;;;5.78;4.50;;;;;;;;;;5023464;28;20076;-70
2023/06/04 04:52:50;;;;;;;4.53;4.15;;;;;;;;;;5025711;28;20030;-69
2023/06/04 04:55:16;;;;;;;4.93;4.32;;;;;;;;;;5023706;28;20048;-69
2023/06/04 04:57:44;;;;;;;4.22;3.92;;;;;;;;;;5023207;28;20052;-70
2023/06/04 05:00:11;;;;;;;4.60;4.30;;;;;;;;;;5024846;28;20033;-70
2023/06/04 05:02:39;;;;;;;;;;;;;;;;;;5021703;28;20108;-68
2023/06/04 05:05:07;;;;;;;5.45;4.45;;;;;;;;;;5023033;28;20454;-69
2023/06/04 05:07:32;;;;;;;4.72;4.32;;;;;;;;;;5028376;28;20022;-69
2023/06/04 05:09:58;;;;;;;4.10;3.78;;;;;;;;;;5025376;28;20049;-70
2023/06/04 05:12:25;;;;;;;4.75;4.35;;;;;;;;;;5023351;28;20099;-70
2023/06/04 05:14:51;;;;;;;4.15;3.83;;;;;;;;;;5025327;28;20080;-70
2023/06/04 05:17:21;;;;;;;4.65;4.00;;;;;;;;;;5029132;28;20034;-70
2023/06/04 05:19:48;;;;;;;4.30;3.95;;;;;;;;;;5035946;28;20037;-70
2023/06/04 05:22:18;;;;;;;4.45;4.15;;;;;;;;;;5022554;28;20516;-70
2023/06/04 05:24:44;;;;;;;4.32;4.03;;;;;;;;;;5035715;28;20045;-69
2023/06/04 05:27:09;;;;;;;4.28;3.95;;;;;;;;;;5023266;28;20036;-71
2023/06/04 05:29:36;;;;;;;4.25;3.90;;;;;;;;;;5025323;28;20560;-70
2023/06/04 05:32:02;;;;;;;5.10;4.13;;;;;;;;;;5023964;28;20041;-70
2023/06/04 05:34:27;;;;;;;5.15;4.22;;;;;;;;;;5040335;28;20103;-70
2023/06/04 05:36:53;;;;;;;4.50;4.18;;;;;;;;;;5021361;28;20942;-69
2023/06/04 05:39:20;;;;;;;4.57;4.28;;;;;;;;;;5024534;28;20033;-70
2023/06/04 05:42:00;;;;;;;4.40;4.07;;;;;;;;;;5021888;28;20503;-70
2023/06/04 05:44:26;;;;;;;4.60;4.20;;;;;;;;;;5022412;28;20033;-70
2023/06/04 05:46:52;;;;;;;4.22;3.90;;;;;;;;;;5026022;28;20662;-69
2023/06/04 05:49:19;;;;;;;4.38;3.97;;;;;;;;;;5019235;28;20034;-69
2023/06/04 05:51:45;;;;;;;4.43;4.03;;;;;;;;;;5023347;28;20937;-70
2023/06/04 05:54:11;;;;;;;4.63;4.15;;;;;;;;;;5033382;28;20120;-70
2023/06/04 05:56:40;;;;;;;4.25;3.92;;;;;;;;;;5024393;28;20041;-69
2023/06/04 05:59:06;;;;;;;4.50;4.10;;;;;;;;;;5024967;28;20041;-69
2023/06/04 06:01:31;;;;;;;4.00;3.72;;;;;;;;;;5022975;28;20047;-69
2023/06/04 06:03:57;;;;;;;4.22;3.90;;;;;;;;;;5025846;28;20052;-70
2023/06/04 06:06:25;;;;;;;4.15;3.88;;;;;;;;;;5008532;28;20539;-69
2023/06/04 06:08:52;;;;;;;4.15;3.85;;;;;;;;;;5021467;28;20049;-70
2023/06/04 06:11:18;;;;;;;4.40;4.00;;;;;;;;;;5023914;28;20073;-70
2023/06/04 06:13:44;;;;;;;5.55;3.90;;;;;;;;;;5024562;28;20045;-70
2023/06/04 06:16:10;;;;;;;4.40;4.10;;;;;;;;;;5040447;28;20037;-69
2023/06/04 06:18:36;;;;;;;7.32;3.90;;;;;;;;;;5025841;28;20087;-70
2023/06/04 06:21:02;;;;;;;3.80;3.53;;;;;;;;;;5024164;28;20064;-70
2023/06/04 06:23:28;;;;;;;3.60;3.40;;;;;;;;;;5023697;28;20451;-72
2023/06/04 06:25:54;;;;;;;3.70;3.50;;;;;;;;;;5005167;28;20030;-71
2023/06/04 06:28:23;;;;;;;3.60;3.30;;;;;;;;;;5023567;28;20163;-70
2023/06/04 06:30:50;;;;;;;3.72;3.42;;;;;;;;;;5026668;28;20037;-70
2023/06/04 06:33:16;;;;;;;3.58;3.28;;;;;;;;;;5025010;28;20515;-71
2023/06/04 06:35:41;;;;;;;3.80;3.50;;;;;;;;;;5022684;28;20437;-71
2023/06/04 06:38:07;;;;;;;3.88;3.47;;;;;;;;;;5024750;28;20052;-69
2023/06/04 06:40:32;;;;;;;3.60;3.40;;;;;;;;;;5025330;28;20037;-70
2023/06/04 06:42:58;;;;;;;3.85;3.55;;;;;;;;;;5025177;28;20484;-71
2023/06/04 06:45:23;;;;;;;3.72;3.42;;;;;;;;;;5020447;28;20727;-70
2023/06/04 06:47:49;;;;;;;3.80;3.50;;;;;;;;;;5025033;28;20030;-70
2023/06/04 06:50:15;;;;;;;3.97;3.65;;;;;;;;;;5022326;28;20037;-70
2023/06/04 06:52:41;;;;;;;3.47;3.28;;;;;;;;;;5025481;28;20025;-70
2023/06/04 06:55:07;;;;;;;3.72;3.40;;;;;;;;;;5024065;28;20041;-69
2023/06/04 06:57:33;;;;;;;3.63;3.40;;;;;;;;;;5025827;28;20539;-70
2023/06/04 06:59:59;;;;;;;4.28;3.53;;;;;;;;;;5026343;28;20125;-71
2023/06/04 07:02:25;;;;;;;3.58;3.28;;;;;;;;;;5025186;28;20125;-69
2023/06/04 07:04:50;;;;;;;4.97;3.45;;;;;;;;;;5019125;28;20049;-70
2023/06/04 07:07:16;;;;;;;4.13;3.50;;;;;;;;;;5025455;28;20033;-70
2023/06/04 07:09:42;;;;;;;3.30;3.03;;;;;;;;;;5024773;28;20068;-70
2023/06/04 07:12:08;;;;;;;3.20;3.00;;;;;;;;;;5023624;28;20480;-70
2023/06/04 07:14:33;;;;;;;3.80;3.40;;;;;;;;;;5024898;28;20045;-70
2023/06/04 07:16:59;;;;;;;3.38;3.05;;;;;;;;;;5025049;28;20037;-70
2023/06/04 07:19:25;;;;;;;3.97;3.53;;;;;;;;;;5022235;28;20036;-71
2023/06/04 07:21:54;;;;;;;3.25;3.05;;;;;;;;;;5025397;28;20041;-70
2023/06/04 07:24:19;;;;;;;3.13;2.92;;;;;;;;;;5024363;28;20072;-70
2023/06/04 07:26:45;;;;;;;3.20;3.00;;;;;;;;;;5025178;28;20111;-71
2023/06/04 07:29:11;;;;;;;3.65;3.28;;;;;;;;;;5022912;28;20033;-70
2023/06/04 07:31:36;;;;;;;3.35;3.05;;;;;;;;;;5024994;28;20033;-70
2023/06/04 07:34:02;;;;;;;3.53;3.22;;;;;;;;;;5024859;28;20047;-71
2023/06/04 07:36:28;;;;;;;3.38;3.10;;;;;;;;;;5023956;28;20057;-70
2023/06/04 07:38:54;;;;;;;3.58;3.28;;;;;;;;;;5024716;28;20727;-70
2023/06/04 07:41:20;;;;;;;3.30;3.10;;;;;;;;;;5026531;28;20033;-70
2023/06/04 07:43:45;;;;;;;4.18;3.38;;;;;;;;;;5026203;28;20421;-70
2023/06/04 07:46:11;;;;;;;3.47;3.20;;;;;;;;;;5026261;28;20037;-70
2023/06/04 07:48:36;;;;;;;3.83;3.10;;;;;;;;;;5020263;28;20160;-72
2023/06/04 07:51:04;;;;;;;4.10;3.20;;;;;;;;;;5017710;28;20756;-70
2023/06/04 07:53:30;;;;;;;5.72;3.45;;;;;;;;;;5021719;28;20037;-71
2023/06/04 07:55:56;;;;;;;4.15;3.30;;;;;;;;;;5025066;28;20052;-71
2023/06/04 07:58:22;;;;;;;4.35;3.38;;;;;;;;;;5026252;28;20042;-70
2023/06/04 08:00:48;;;;;;;3.45;3.13;;;;;;;;;;5031034;28;20408;-70
2023/06/04 08:03:15;;;;;;;4.38;3.30;;;;;;;;;;5026628;28;20033;-71
2023/06/04 08:05:41;;;;;;;3.05;2.85;;;;;;;;;;5023341;28;20045;-70
2023/06/04 08:08:06;;;;;;;3.20;3.00;;;;;;;;;;5026244;28;20029;-70
2023/06/04 08:10:32;;;;;;;3.13;2.92;;;;;;;;;;5024763;28;20127;-71
2023/06/04 08:12:57;;;;;;;3.83;3.47;;;;;;;;;;5021853;28;20045;-71
2023/06/04 08:15:23;;;;;;;4.85;2.92;;;;;;;;;;5017577;28;20044;-70
2023/06/04 08:18:09;;;;;;;3.20;3.00;;;;;;;;;;5020812;28;20049;-71
2023/06/04 08:20:40;;;;;;;3.70;3.28;;;;;;;;;;5022210;28;20036;-72
2023/06/04 08:23:24;;;;;;;4.03;3.55;;;;;;;;;;5019677;28;20124;-70
2023/06/04 08:26:10;;;;;;;6.10;3.88;;;;;;;;;;5020960;28;20073;-71
2023/06/04 08:28:49;;;;;;;6.22;3.38;;;;;;;;;;5021244;28;20075;-72
2023/06/04 08:31:16;;;;;;;3.60;3.30;;;;;;;;;;5020932;28;20096;-69
2023/06/04 08:33:53;;;;;;;3.70;3.40;;;;;;;;;;5022383;28;20497;-71
2023/06/04 08:36:20;;;;;;;3.70;3.40;;;;;;;;;;5020337;28;20038;-72
2023/06/04 08:38:50;;;;;;;3.88;3.22;;;;;;;;;;5021115;28;20048;-70
2023/06/04 08:41:26;;;;;;;3.47;3.03;;;;;;;;;;5021493;28;20053;-72
2023/06/04 08:43:55;;;;;;;4.97;3.08;;;;;;;;;;5022466;28;20037;-71
2023/06/04 08:46:21;;;;;;;3.42;3.05;;;;;;;;;;5022315;28;20052;-72
2023/06/04 08:48:49;;;;;;;3.50;3.20;;;;;;;;;;5020655;28;20528;-71
2023/06/04 08:51:15;;;;;;;4.50;3.08;;;;;;;;;;5022259;28;20040;-70
2023/06/04 08:53:42;;;;;;;3.60;3.30;;;;;;;;;;5021736;28;20425;-73
2023/06/04 08:56:07;;;;;;;3.20;3.00;;;;;;;;;;5020557;28;20041;-71
2023/06/04 08:58:35;;;;;;;3.30;2.97;;;;;;;;;;5014670;28;20041;-71
2023/06/04 09:01:02;;;;;;;3.17;2.97;;;;;;;;;;5021760;28;20037;-70
2023/06/04 09:03:32;;;;;;;3.08;2.80;;;;;;;;;;5021860;28;20076;-71
2023/06/04 09:06:00;;;;;;;5.18;3.25;;;;;;;;;;5020376;28;20509;-72
2023/06/04 09:08:31;;;;;;;3.00;2.73;;;;;;;;;;5021469;28;20029;-73
2023/06/04 09:10:57;;;;;;;3.97;3.22;;;;;;;;;;5021904;28;20126;-70
2023/06/04 09:13:30;;;;;;;3.20;3.00;;;;;;;;;;5020369;28;20103;-71
2023/06/04 09:16:03;;;;;;;4.25;3.10;;;;;;;;;;5035146;28;20045;-71
2023/06/04 09:18:29;;;;;;;3.10;2.80;;;;;;;;;;5021315;28;20037;-70
2023/06/04 09:21:08;;;;;;;3.90;3.00;;;;;;;;;;5021815;28;20037;-70
2023/06/04 09:23:35;;;;;;;3.97;3.10;;;;;;;;;;5019670;28;20132;-71
2023/06/04 09:26:08;;;;;;;3.30;3.10;;;;;;;;;;5021551;28;20042;-70
2023/06/04 09:28:34;;;;;;;5.43;3.20;;;;;;;;;;5021234;28;20041;-72
2023/06/04 09:31:02;;;;;;;3.45;3.13;;;;;;;;;;5020570;28;20036;-70
2023/06/04 09:33:28;;;;;;;3.17;2.88;;;;;;;;;;5021333;28;20037;-69
2023/06/04 09:35:55;;;;;;;3.53;3.10;;;;;;;;;;5020668;28;20112;-72
2023/06/04 09:38:21;;;;;;;4.80;3.70;;;;;;;;;;5019218;28;20881;-72
2023/06/04 09:40:49;;;;;;;3.55;3.25;;;;;;;;;;5018357;28;20041;-70
2023/06/04 09:43:23;;;;;;;5.93;3.03;;;;;;;;;;5017564;28;20512;-72
2023/06/04 09:45:49;;;;;;;3.90;3.15;;;;;;;;;;5019092;28;20377;-72
2023/06/04 09:48:21;;;;;;;3.92;3.05;;;;;;;;;;5017968;28;20041;-71
2023/06/04 09:50:48;;;;;;;3.42;3.00;;;;;;;;;;5020912;28;20052;-71
2023/06/04 09:53:22;;;;;;;6.47;3.22;;;;;;;;;;5021171;28;20116;-70
2023/06/04 09:56:00;;;;;;;5.72;3.33;;;;;;;;;;5021286;28;20148;-71
2023/06/04 09:58:27;;;;;;;3.30;3.00;;;;;;;;;;5016404;28;20049;-69
2023/06/04 10:00:56;;;;;;;3.35;2.95;;;;;;;;;;5019369;28;20072;-70
2023/06/04 10:03:25;;;;;;;4.60;3.10;;;;;;;;;;5019219;28;20033;-71
2023/06/04 10:05:56;;;;;;;3.95;3.33;;;;;;;;;;5018288;28;20050;-71
2023/06/04 10:08:25;;;;;;;6.00;3.05;;;;;;;;;;5015306;28;20060;-71
2023/06/04 10:10:52;;;;;;;4.65;3.38;;;;;;;;;;5018990;28;20037;-72
2023/06/04 10:13:19;;;;;;;6.25;3.13;;;;;;;;;;5017696;28;20045;-70
2023/06/04 10:15:46;;;;;;;4.43;3.13;;;;;;;;;;5018251;28;20069;-72
2023/06/04 10:18:13;;;;;;;3.15;2.85;;;;;;;;;;5018798;28;20250;-71
2023/06/04 10:20:40;;;;;;;3.58;3.13;;;;;;;;;;5020088;28;20961;-70
2023/06/04 10:23:07;;;;;;;4.28;3.15;;;;;;;;;;5017523;28;20029;-69
2023/06/04 10:25:36;;;;;;;3.20;3.00;;;;;;;;;;5016681;28;20048;-71
2023/06/04 10:28:03;;;;;;;4.43;3.20;;;;;;;;;;5019143;28;20034;-71
2023/06/04 10:30:30;;;;;;;3.60;3.30;;;;;;;;;;5019675;28;20045;-70
2023/06/04 10:32:57;;;;;;;5.70;3.38;;;;;;;;;;5017306;28;20097;-69
2023/06/04 10:35:33;;;;;;;5.43;3.53;;;;;;;;;;5020562;28;20033;-70
2023/06/04 10:38:09;;;;;;;5.00;3.42;;;;;;;;;;5020267;28;20152;-72
2023/06/04 10:40:36;;;;;;;4.25;3.20;;;;;;;;;;5018185;28;20025;-69
2023/06/04 10:43:06;;;;;;;4.22;3.40;;;;;;;;;;5018692;28;20056;-70
2023/06/04 10:45:32;;;;;;;6.70;3.28;;;;;;;;;;5013956;28;20086;-70
2023/06/04 10:48:05;;;;;;;4.60;3.20;;;;;;;;;;5019790;28;20033;-72
2023/06/04 10:50:32;;;;;;;3.47;3.20;;;;;;;;;;5018311;28;20107;-72
2023/06/04 10:52:58;;;;;;;3.25;3.03;;;;;;;;;;5019610;28;20052;-70
2023/06/04 10:55:24;;;;;;;3.92;3.28;;;;;;;;;;5019711;28;20041;-71
2023/06/04 10:58:01;;;;;;;4.88;3.70;;;;;;;;;;5019721;28;20499;-72
2023/06/04 11:00:49;;;;;;;4.30;3.38;;;;;;;;;;5015930;28;20536;-71
2023/06/04 11:03:15;;;;;;;3.72;3.42;;;;;;;;;;5018478;28;20033;-70
2023/06/04 11:05:44;;;;;;;3.67;3.38;;;;;;;;;;5020133;28;20511;-71
2023/06/04 11:08:12;;;;;;;4.93;3.45;;;;;;;;;;5015807;28;20392;-69
2023/06/04 11:10:42;;;;;;;3.95;3.40;;;;;;;;;;5019425;28;20041;-71
2023/06/04 11:13:08;;;;;;;6.07;3.50;;;;;;;;;;5018997;28;20041;-72
2023/06/04 11:15:43;;;;;;;6.95;3.85;;;;;;;;;;5018258;28;20423;-70
2023/06/04 11:18:20;;;;;;;3.58;3.28;;;;;;;;;;5020882;28;20065;-69
2023/06/04 11:20:47;;;;;;;4.45;3.85;;;;;;;;;;5019645;28;20052;-71
2023/06/04 11:23:14;;;;;;;4.28;3.63;;;;;;;;;;5022891;28;20257;-69
2023/06/04 11:25:42;;;;;;;4.07;3.67;;;;;;;;;;5021687;28;20171;-70
2023/06/04 11:28:07;;;;;;;3.78;3.40;;;;;;;;;;5023327;28;20033;-71
2023/06/04 11:30:33;;;;;;;7.05;4.25;;;;;;;;;;5022114;28;20586;-69
2023/06/04 11:33:06;;;;;;;4.07;3.70;;;;;;;;;;5021647;28;20033;-71
2023/06/04 11:35:40;;;;;;;4.80;3.92;;;;;;;;;;5023196;28;20797;-72
2023/06/04 11:38:05;;;;;;;3.72;3.42;;;;;;;;;;5022885;28;20038;-70
2023/06/04 11:40:31;;;;;;;3.92;3.60;;;;;;;;;;5020907;28;20045;-69
2023/06/04 11:42:57;;;;;;;4.30;3.90;;;;;;;;;;5020039;28;20047;-70
2023/06/04 11:45:23;;;;;;;4.15;3.83;;;;;;;;;;5022212;28;20116;-71
2023/06/04 11:47:53;;;;;;;4.57;3.65;;;;;;;;;;5023729;28;20038;-71
2023/06/04 11:50:20;;;;;;;4.40;3.97;;;;;;;;;;5023243;28;20084;-70
2023/06/04 11:52:48;;;;;;;4.25;3.85;;;;;;;;;;5024933;28;20799;-68
2023/06/04 11:55:13;;;;;;;4.67;4.17;;;;;;;;;;5024005;28;20038;-70
2023/06/04 11:57:40;;;;;;;4.25;3.70;;;;;;;;;;5022720;28;20083;-72
2023/06/04 12:00:10;;;;;;;4.43;4.03;;;;;;;;;;5019784;28;20038;-71
2023/06/04 12:02:49;;;;;;;4.47;4.07;;;;;;;;;;5022543;28;20460;-71
2023/06/04 12:05:18;;;;;;;4.80;4.40;;;;;;;;;;5019978;28;20118;-71
2023/06/04 12:07:44;;;;;;;4.78;4.38;;;;;;;;;;5021011;28;20037;-69
2023/06/04 12:10:13;;;;;;;4.30;4.00;;;;;;;;;;5022527;28;20044;-71
2023/06/04 12:12:42;;;;;;;4.38;3.97;;;;;;;;;;5022715;28;20053;-71
2023/06/04 12:15:09;;;;;;;4.65;4.25;;;;;;;;;;5019407;28;20033;-71
2023/06/04 12:17:37;;;;;;;4.47;4.07;;;;;;;;;;5015512;28;20060;-72
2023/06/04 12:20:05;;;;;;;4.47;4.07;;;;;;;;;;5017832;28;20041;-70
2023/06/04 12:22:31;;;;;;;4.30;3.90;;;;;;;;;;5023259;28;20072;-69
2023/06/04 12:25:00;;;;;;;5.10;3.90;;;;;;;;;;5020482;28;20069;-69
2023/06/04 12:27:26;;;;;;;4.97;4.18;;;;;;;;;;5022106;28;20041;-70
2023/06/04 12:29:59;;;;;;;4.20;3.80;;;;;;;;;;5023858;28;20041;-70
2023/06/04 12:32:25;;;;;;;7.20;3.92;;;;;;;;;;5020778;28;20086;-71
2023/06/04 12:34:51;;;;;;;5.20;3.50;;;;;;;;;;5023788;28;20037;-69
2023/06/04 12:37:16;;;;;;;4.65;4.13;;;;;;;;;;5023773;28;20051;-70
2023/06/04 12:39:42;;;;;;;4.65;4.20;;;;;;;;;;5021216;28;20507;-69
2023/06/04 12:42:08;;;;;;;8.25;4.30;;;;;;;;;;5023489;28;20117;-69
2023/06/04 12:44:40;;;;;;;6.97;3.97;;;;;;;;;;5023511;28;20037;-70
2023/06/04 12:47:07;;;;;;;5.30;4.20;;;;;;;;;;5023454;28;20037;-70
2023/06/04 12:49:32;;;;;;;4.28;3.97;;;;;;;;;;5021453;28;20060;-69
2023/06/04 12:51:58;;;;;;;5.03;4.50;;;;;;;;;;5023752;28;20117;-69
2023/06/04 12:54:24;;;;;;;4.45;4.05;;;;;;;;;;5023303;28;20060;-69
2023/06/04 12:56:50;;;;;;;4.75;4.25;;;;;;;;;;5020407;28;20064;-69
2023/06/04 12:59:16;;;;;;;4.43;4.13;;;;;;;;;;5023132;28;20029;-69
2023/06/04 13:01:42;;;;;;;4.35;4.00;;;;;;;;;;5022141;28;20037;-69
2023/06/04 13:04:08;;;;;;;4.68;4.28;;;;;;;;;;5021524;28;20033;-69
2023/06/04 13:06:38;;;;;;;4.70;4.30;;;;;;;;;;5023313;28;20463;-70
2023/06/04 13:09:11;;;;;;;4.88;4.40;;;;;;;;;;5023032;28;20057;-70
2023/06/04 13:11:38;;;;;;;4.25;3.95;;;;;;;;;;5024169;28;20119;-68
2023/06/04 13:14:04;;;;;;;4.72;4.30;;;;;;;;;;5021163;28;20033;-70
2023/06/04 13:16:30;;;;;;;4.90;4.28;;;;;;;;;;5023175;28;20481;-71
2023/06/04 13:18:55;;;;;;;4.72;4.32;;;;;;;;;;5022205;28;20128;-69
2023/06/04 13:21:21;;;;;;;4.18;3.88;;;;;;;;;;5023067;28;20574;-71
2023/06/04 13:23:47;;;;;;;4.75;4.35;;;;;;;;;;5004010;28;20065;-69
2023/06/04 13:26:12;;;;;;;4.35;3.97;;;;;;;;;;5020875;28;20096;-70
2023/06/04 13:28:38;;;;;;;4.20;3.90;;;;;;;;;;5021726;28;20034;-71
2023/06/04 13:31:04;;;;;;;5.47;4.45;;;;;;;;;;5020741;28;20061;-72
2023/06/04 13:33:29;;;;;;;6.55;4.50;;;;;;;;;;5019059;28;20045;-69
2023/06/04 13:35:55;;;;;;;4.38;4.07;;;;;;;;;;5021724;28;20556;-69
2023/06/04 13:38:20;;;;;;;4.70;4.30;;;;;;;;;;5022055;28;20040;-70
2023/06/04 13:40:46;;;;;;;4.60;4.20;;;;;;;;;;5020113;28;20748;-69
2023/06/04 13:43:11;;;;;;;4.68;4.22;;;;;;;;;;5022853;28;20563;-69
2023/06/04 13:45:37;;;;;;;4.95;4.45;;;;;;;;;;5022134;28;20571;-69
2023/06/04 13:48:06;;;;;;;4.38;4.07;;;;;;;;;;5022605;28;20041;-72
2023/06/04 13:50:33;;;;;;;5.32;3.92;;;;;;;;;;5021068;28;20485;-68
2023/06/04 13:52:58;;;;;;;4.60;4.10;;;;;;;;;;5022397;28;20047;-69
2023/06/04 13:55:24;;;;;;;4.57;4.28;;;;;;;;;;5022377;28;20041;-69
2023/06/04 13:57:50;;;;;;;4.50;4.10;;;;;;;;;;5020437;28;20041;-69
2023/06/04 14:00:16;;;;;;;4.85;4.38;;;;;;;;;;5022444;28;20068;-71
2023/06/04 14:02:41;;;;;;;5.30;4.60;;;;;;;;;;5019752;28;20117;-71
2023/06/04 14:05:08;;;;;;;4.40;4.10;;;;;;;;;;5021539;28;20406;-69
2023/06/04 14:07:33;;;;;;;6.05;4.68;;;;;;;;;;5022372;28;20033;-71
2023/06/04 14:10:00;;;;;;;5.18;4.13;;;;;;;;;;5022493;28;20036;-70
2023/06/04 14:12:25;;;;;;;4.88;4.47;;;;;;;;;;5020711;28;20037;-72
2023/06/04 14:14:51;;;;;;;5.03;4.63;;;;;;;;;;5022889;28;20047;-70
2023/06/04 14:17:17;;;;;;;6.22;4.32;;;;;;;;;;5023115;28;20033;-70
2023/06/04 14:19:43;;;;;;;4.57;4.18;;;;;;;;;;5022388;28;20033;-69
2023/06/04 14:22:10;;;;;;;4.68;4.28;;;;;;;;;;5020471;28;20048;-71
2023/06/04 14:24:36;;;;;;;5.07;4.65;;;;;;;;;;5022432;28;20136;-72
2023/06/04 14:27:01;;;;;;;5.07;4.68;;;;;;;;;;5022487;28;20048;-70
2023/06/04 14:29:27;;;;;;;4.95;4.50;;;;;;;;;;5022004;28;20037;-69
2023/06/04 14:31:52;;;;;;;7.47;4.28;;;;;;;;;;5017516;28;20117;-71
2023/06/04 14:34:18;;;;;;;5.18;4.78;;;;;;;;;;5019421;28;20040;-71
2023/06/04 14:36:46;;;;;;;5.15;4.65;;;;;;;;;;5021926;28;20056;-69
2023/06/04 14:39:12;;;;;;;4.68;4.20;;;;;;;;;;5018634;28;20119;-69
2023/06/04 14:41:38;;;;;;;4.32;4.03;;;;;;;;;;5019530;28;20124;-69
2023/06/04 14:44:03;;;;;;;4.80;4.32;;;;;;;;;;5022300;28;20392;-69
2023/06/04 14:46:29;;;;;;;4.43;4.03;;;;;;;;;;5024303;28;20152;-71